Time;durP1;ratioP1;P1;durP2;ratioP2;P2;SDS_P1;SDS_P2;PMS_P1;PMS_P2;Temp;Humidity;BMP_temperature;BMP_pressure;BME280_temperature;BME280_humidity;BME280_pressure;Samples;Min_cycle;Max_cycle;Signal;HPM_P1;HPM_P2
2022/08/03 00:00:05;;;;;;;14.97;4.43;;;19.40;99.90;;;;;;4957004;28;20043;-73
2022/08/03 00:02:31;;;;;;;11.10;4.53;;;19.30;99.90;;;;;;4939686;29;20055;-72
2022/08/03 00:04:57;;;;;;;9.00;4.20;;;19.30;99.90;;;;;;4939780;29;20117;-76
2022/08/03 00:07:22;;;;;;;16.13;4.03;;;19.30;99.90;;;;;;4957132;29;20451;-74
2022/08/03 00:09:49;;;;;;;13.63;4.10;;;19.20;99.90;;;;;;4955663;29;20106;-73
2022/08/03 00:12:15;;;;;;;13.82;3.80;;;19.20;99.90;;;;;;4939471;29;20043;-73
2022/08/03 00:14:41;;;;;;;11.50;3.38;;;19.20;99.90;;;;;;4939422;29;20063;-71
2022/08/03 00:17:07;;;;;;;11.17;3.40;;;19.20;99.90;;;;;;4956456;29;20043;-72
2022/08/03 00:19:32;;;;;;;9.23;3.30;;;19.20;99.90;;;;;;4955444;28;20342;-73
2022/08/03 00:21:58;;;;;;;13.20;2.90;;;19.20;99.90;;;;;;4939537;29;20376;-77
2022/08/03 00:24:24;;;;;;;11.83;3.03;;;19.20;99.90;;;;;;4955006;29;20158;-74
2022/08/03 00:26:51;;;;;;;12.23;3.37;;;19.20;99.90;;;;;;4923990;29;20062;-74
2022/08/03 00:29:16;;;;;;;;;;;19.10;99.90;;;;;;4957399;28;20193;-72
2022/08/03 00:31:42;;;;;;;7.73;3.13;;;19.10;99.90;;;;;;4939163;29;19965;-72
2022/08/03 00:34:07;;;;;;;15.07;3.50;;;19.10;99.90;;;;;;4955080;29;20134;-72
2022/08/03 00:36:33;;;;;;;14.27;3.20;;;19.10;99.90;;;;;;4923154;29;20057;-72
2022/08/03 00:38:59;;;;;;;9.20;2.90;;;19.10;99.90;;;;;;4938802;29;20047;-80
2022/08/03 00:41:25;;;;;;;11.73;2.90;;;19.10;99.90;;;;;;4954811;29;20059;-73
2022/08/03 00:43:53;;;;;;;14.43;3.60;;;19.10;99.90;;;;;;4955704;29;20101;-73
2022/08/03 00:46:21;;;;;;;15.67;3.20;;;19.10;99.90;;;;;;4955571;28;20043;-72
2022/08/03 00:48:51;;;;;;;14.43;3.08;;;19.10;99.90;;;;;;4954897;29;20050;-75
2022/08/03 00:51:17;;;;;;;16.45;3.10;;;19.10;99.90;;;;;;4922954;29;20388;-74
2022/08/03 00:53:44;;;;;;;10.63;3.40;;;19.10;99.90;;;;;;4921897;29;20407;-73
2022/08/03 00:56:12;;;;;;;;;;;19.00;99.90;;;;;;4955293;29;20113;-73
2022/08/03 00:58:38;;;;;;;13.30;2.95;;;19.00;99.90;;;;;;4955669;29;19993;-72
2022/08/03 01:01:05;;;;;;;11.87;2.87;;;19.00;99.90;;;;;;4939204;29;20051;-73
2022/08/03 01:03:31;;;;;;;14.60;2.97;;;19.00;99.90;;;;;;4923254;29;20057;-72
2022/08/03 01:06:02;;;;;;;13.63;3.37;;;18.90;99.90;;;;;;4938327;29;20055;-72
2022/08/03 01:08:36;;;;;;;12.18;3.25;;;18.90;99.90;;;;;;4956191;29;20051;-74
2022/08/03 01:11:25;;;;;;;14.40;3.70;;;18.80;99.90;;;;;;4956149;28;20126;-75
2022/08/03 01:14:24;;;;;;;13.85;3.53;;;18.80;99.90;;;;;;4955722;28;20066;-73
2022/08/03 01:17:01;;;;;;;11.38;3.67;;;18.80;99.90;;;;;;4955730;29;20392;-73
2022/08/03 01:19:51;;;;;;;13.57;3.65;;;18.70;99.90;;;;;;4955308;29;20051;-73
2022/08/03 01:22:41;;;;;;;12.57;3.40;;;18.70;99.90;;;;;;4954034;29;20519;-73
2022/08/03 01:25:25;;;;;;;14.82;3.65;;;18.70;99.90;;;;;;4938201;29;20087;-73
2022/08/03 01:28:11;;;;;;;15.30;3.70;;;18.70;99.90;;;;;;4955538;28;20043;-72
2022/08/03 01:30:41;;;;;;;15.98;3.75;;;18.60;99.90;;;;;;4955494;29;20051;-72
2022/08/03 01:33:14;;;;;;;9.38;3.30;;;18.50;99.90;;;;;;4922717;29;20138;-72
2022/08/03 01:36:02;;;;;;;10.10;3.38;;;18.50;99.90;;;;;;4955149;28;20066;-72
2022/08/03 01:38:37;;;;;;;8.98;3.22;;;18.50;99.90;;;;;;4955594;29;20125;-72
2022/08/03 01:41:07;;;;;;;9.35;3.13;;;18.50;99.90;;;;;;4955053;28;20051;-73
2022/08/03 01:43:34;;;;;;;10.43;3.70;;;18.60;99.90;;;;;;4954427;29;20051;-71
2022/08/03 01:46:01;;;;;;;;;;;18.50;99.90;;;;;;4955982;28;20061;-73
2022/08/03 01:48:27;;;;;;;15.02;3.20;;;18.50;99.90;;;;;;4954684;29;20017;-74
2022/08/03 01:50:55;;;;;;;10.57;2.85;;;18.40;99.90;;;;;;4954824;28;20043;-73
2022/08/03 01:53:22;;;;;;;8.57;3.15;;;18.40;99.90;;;;;;4954554;29;20064;-72
2022/08/03 01:55:51;;;;;;;9.00;3.42;;;18.50;99.90;;;;;;4953506;29;20066;-72
2022/08/03 01:58:19;;;;;;;13.55;3.10;;;18.50;99.90;;;;;;4937677;29;20550;-72
2022/08/03 02:00:47;;;;;;;11.52;3.53;;;18.60;99.90;;;;;;4954829;29;20047;-72
2022/08/03 02:03:15;;;;;;;13.45;3.28;;;18.30;99.90;;;;;;4954615;28;20203;-74
2022/08/03 02:05:44;;;;;;;14.20;3.05;;;18.50;99.90;;;;;;4953814;28;20051;-72
2022/08/03 02:08:13;;;;;;;11.43;3.03;;;18.20;99.90;;;;;;4954607;29;20403;-74
2022/08/03 02:10:40;;;;;;;9.32;3.17;;;18.20;99.90;;;;;;4937468;29;20145;-72
2022/08/03 02:13:07;;;;;;;15.90;3.00;;;18.10;99.90;;;;;;4954570;28;20054;-72
2022/08/03 02:15:35;;;;;;;10.10;3.20;;;18.20;99.90;;;;;;4953097;29;20105;-73
2022/08/03 02:18:04;;;;;;;12.02;3.40;;;18.10;99.90;;;;;;4953438;29;20138;-72
2022/08/03 02:20:31;;;;;;;8.40;3.17;;;18.10;99.90;;;;;;4937552;29;20097;-72
2022/08/03 02:22:57;;;;;;;12.05;3.10;;;18.10;99.90;;;;;;4937555;29;20047;-77
2022/08/03 02:25:23;;;;;;;10.63;3.33;;;18.00;99.90;;;;;;4954360;29;20126;-73
2022/08/03 02:27:57;;;;;;;12.20;3.63;;;18.00;99.90;;;;;;4937546;29;20143;-70
2022/08/03 02:30:29;;;;;;;18.80;3.65;;;18.00;99.90;;;;;;4954307;28;20138;-72
2022/08/03 02:32:58;;;;;;;11.60;3.13;;;18.00;99.90;;;;;;4954605;29;20082;-72
2022/08/03 02:35:27;;;;;;;16.48;4.03;;;17.90;99.90;;;;;;4954636;28;20082;-72
2022/08/03 02:38:06;;;;;;;11.77;3.45;;;18.00;99.90;;;;;;4952980;29;20039;-73
2022/08/03 02:40:33;;;;;;;11.55;2.97;;;17.90;99.90;;;;;;4954256;28;20047;-73
2022/08/03 02:43:06;;;;;;;7.40;3.17;;;17.90;99.90;;;;;;4937632;29;20055;-75
2022/08/03 02:45:35;;;;;;;12.73;3.00;;;17.90;99.90;;;;;;4954765;28;20051;-72
2022/08/03 02:48:04;;;;;;;13.88;3.13;;;17.90;99.90;;;;;;4937060;29;20047;-72
2022/08/03 02:50:31;;;;;;;14.05;3.40;;;17.90;99.90;;;;;;4954009;29;20106;-71
2022/08/03 02:52:57;;;;;;;;;;;17.90;99.90;;;;;;4953130;29;20067;-77
2022/08/03 02:55:25;;;;;;;14.20;2.72;;;17.90;99.90;;;;;;4953994;28;19933;-72
2022/08/03 02:57:51;;;;;;;12.77;2.58;;;;;;;;;;4952634;29;20040;-72
2022/08/03 03:00:18;;;;;;;10.95;3.05;;;17.80;99.90;;;;;;4953868;28;20058;-71
2022/08/03 03:02:44;;;;;;;;;;;17.80;99.90;;;;;;4953230;29;20096;-72
2022/08/03 03:05:11;;;;;;;11.63;2.50;;;17.80;99.90;;;;;;4937146;29;19923;-72
2022/08/03 03:07:39;;;;;;;13.60;3.47;;;17.80;99.90;;;;;;4954118;29;20393;-72
2022/08/03 03:10:07;;;;;;;11.90;2.75;;;17.80;99.90;;;;;;4953028;29;20083;-71
2022/08/03 03:12:36;;;;;;;13.35;2.95;;;17.80;99.90;;;;;;4952872;29;20051;-71
2022/08/03 03:15:04;;;;;;;10.93;2.70;;;17.80;99.90;;;;;;4953920;28;20055;-72
2022/08/03 03:17:30;;;;;;;14.65;2.17;;;17.80;99.90;;;;;;4939295;29;20089;-71
2022/08/03 03:19:57;;;;;;;11.15;2.33;;;17.80;99.90;;;;;;4924673;29;20105;-74
2022/08/03 03:22:24;;;;;;;10.07;2.22;;;17.80;99.90;;;;;;4957364;29;20051;-74
2022/08/03 03:24:50;;;;;;;10.20;2.63;;;17.80;99.90;;;;;;4957377;29;20516;-72
2022/08/03 03:27:17;;;;;;;6.57;2.35;;;17.70;99.90;;;;;;4956649;29;20052;-71
2022/08/03 03:29:43;;;;;;;15.13;2.60;;;17.70;99.90;;;;;;4957398;29;20514;-73
2022/08/03 03:32:12;;;;;;;13.60;2.50;;;17.70;99.90;;;;;;4956851;29;20055;-72
2022/08/03 03:34:38;;;;;;;12.07;2.90;;;17.70;99.90;;;;;;4940144;29;20047;-72
2022/08/03 03:37:04;;;;;;;16.57;2.40;;;17.70;99.90;;;;;;4957127;29;20126;-73
2022/08/03 03:39:30;;;;;;;11.57;2.30;;;17.70;99.90;;;;;;4955788;29;20130;-71
2022/08/03 03:41:56;;;;;;;11.70;2.60;;;17.70;99.90;;;;;;4957605;28;20055;-71
2022/08/03 03:44:28;;;;;;;9.88;2.28;;;17.60;99.90;;;;;;4955865;29;20059;-73
2022/08/03 03:46:56;;;;;;;12.75;2.35;;;17.60;99.90;;;;;;4956371;29;20070;-72
2022/08/03 03:49:22;;;;;;;9.48;2.92;;;17.60;99.90;;;;;;4957630;28;20055;-72
2022/08/03 03:51:51;;;;;;;8.20;2.30;;;17.60;99.90;;;;;;4956736;29;20471;-72
2022/08/03 03:54:16;;;;;;;13.68;2.70;;;17.60;99.90;;;;;;4955853;29;20507;-73
2022/08/03 03:56:42;;;;;;;12.80;2.47;;;17.60;99.90;;;;;;4923690;29;20150;-71
2022/08/03 03:59:08;;;;;;;11.97;2.70;;;17.60;99.90;;;;;;4939881;29;20055;-72
2022/08/03 04:01:33;;;;;;;12.00;2.33;;;17.50;99.90;;;;;;4939830;29;20040;-73
2022/08/03 04:10:57;;;;;;;15.30;2.60;;;17.60;99.90;;;;;;4956820;29;20138;-71
2022/08/03 04:12:17;;;;;;;12.82;2.80;;;17.50;99.90;;;;;;4956859;28;20090;-73
2022/08/03 04:14:45;;;;;;;16.70;2.75;;;17.50;99.90;;;;;;4956777;28;20055;-72
2022/08/03 04:17:12;;;;;;;14.98;2.85;;;17.50;99.90;;;;;;4956594;28;20145;-71
2022/08/03 04:19:43;;;;;;;7.57;2.20;;;17.50;99.90;;;;;;4955652;29;20053;-72
2022/08/03 04:22:12;;;;;;;9.52;3.00;;;17.50;99.90;;;;;;4939221;29;20055;-72
2022/08/03 04:24:43;;;;;;;13.32;2.60;;;17.60;99.90;;;;;;4939267;29;20380;-72
2022/08/03 04:27:12;;;;;;;13.25;3.28;;;17.60;99.90;;;;;;4955272;28;20467;-73
2022/08/03 04:29:42;;;;;;;11.77;3.50;;;17.60;99.90;;;;;;4954841;29;20085;-73
2022/08/03 04:32:10;;;;;;;9.70;2.78;;;17.60;99.90;;;;;;4955343;29;20047;-73
2022/08/03 04:34:35;;;;;;;10.30;3.10;;;17.60;99.90;;;;;;4939125;29;20047;-73
2022/08/03 04:37:06;;;;;;;11.30;2.97;;;17.70;99.90;;;;;;4954438;29;20115;-72
2022/08/03 04:39:32;;;;;;;11.00;2.75;;;17.70;99.90;;;;;;4955144;29;20154;-73
2022/08/03 04:42:03;;;;;;;9.68;2.75;;;17.80;99.90;;;;;;4955883;29;20174;-72
2022/08/03 04:44:34;;;;;;;14.27;3.35;;;17.80;99.90;;;;;;4956189;29;20150;-81
2022/08/03 04:47:00;;;;;;;13.88;3.40;;;17.80;99.90;;;;;;4956753;29;20050;-73
2022/08/03 04:49:27;;;;;;;13.70;3.45;;;17.80;99.90;;;;;;4955027;29;20133;-72
2022/08/03 04:51:53;;;;;;;13.07;3.00;;;17.90;99.90;;;;;;4955930;29;20157;-72
2022/08/03 04:54:19;;;;;;;17.10;2.93;;;18.00;99.90;;;;;;4938722;29;20055;-72
2022/08/03 04:56:44;;;;;;;16.97;3.27;;;18.00;99.90;;;;;;4955780;28;20303;-72
2022/08/03 04:59:10;;;;;;;12.67;3.33;;;18.00;99.90;;;;;;4939431;29;20057;-74
2022/08/03 05:01:38;;;;;;;14.68;3.45;;;18.10;99.90;;;;;;4939343;29;20413;-73
2022/08/03 05:04:09;;;;;;;16.55;3.42;;;18.10;99.90;;;;;;4940157;29;20085;-73
2022/08/03 05:06:35;;;;;;;10.53;3.27;;;18.10;99.90;;;;;;4954634;29;20498;-72
2022/08/03 05:09:01;;;;;;;15.30;3.40;;;18.20;99.90;;;;;;4922508;29;20459;-73
2022/08/03 05:11:27;;;;;;;18.60;3.20;;;18.30;99.90;;;;;;4954862;29;20126;-76
2022/08/03 05:13:53;;;;;;;18.38;3.78;;;18.40;99.90;;;;;;4955430;29;20059;-72
2022/08/03 05:16:19;;;;;;;15.43;3.63;;;18.50;99.90;;;;;;4938470;29;20043;-73
2022/08/03 05:18:45;;;;;;;10.93;3.63;;;18.50;99.90;;;;;;4954040;29;20059;-71
2022/08/03 05:21:13;;;;;;;18.37;3.60;;;18.60;99.90;;;;;;4922538;29;20150;-72
2022/08/03 05:23:40;;;;;;;13.05;3.13;;;18.70;99.90;;;;;;4955263;29;20059;-72
2022/08/03 05:26:05;;;;;;;;;;;18.70;99.90;;;;;;4955032;29;20138;-72
2022/08/03 05:28:31;;;;;;;14.83;3.30;;;18.70;99.90;;;;;;4938335;29;20366;-73
2022/08/03 05:30:57;;;;;;;11.50;3.97;;;18.80;99.90;;;;;;4937668;29;20298;-72
2022/08/03 05:33:22;;;;;;;14.30;3.57;;;18.80;99.90;;;;;;4955215;29;20170;-72
2022/08/03 05:35:48;;;;;;;13.23;3.57;;;18.90;99.90;;;;;;4937932;29;20051;-72
2022/08/03 05:38:14;;;;;;;13.57;3.37;;;18.90;99.90;;;;;;4954849;29;20047;-73
2022/08/03 05:40:40;;;;;;;16.17;3.67;;;18.90;99.90;;;;;;4955146;28;20079;-74
2022/08/03 05:43:05;;;;;;;11.10;3.40;;;19.00;99.90;;;;;;4955056;28;20062;-72
2022/08/03 05:45:31;;;;;;;15.30;3.87;;;19.00;99.90;;;;;;4955412;28;20047;-72
2022/08/03 05:47:56;;;;;;;12.17;3.37;;;19.00;99.90;;;;;;4953832;29;20055;-80
2022/08/03 05:50:22;;;;;;;15.30;3.63;;;19.20;99.90;;;;;;4955368;29;20054;-73
2022/08/03 05:52:48;;;;;;;12.47;3.97;;;19.20;99.90;;;;;;4953055;29;20086;-72
2022/08/03 05:55:14;;;;;;;15.13;4.10;;;19.20;99.90;;;;;;4921926;29;20063;-72
2022/08/03 05:57:39;;;;;;;14.33;4.50;;;19.30;99.90;;;;;;4954739;29;20082;-74
2022/08/03 06:00:08;;;;;;;16.77;4.40;;;19.30;99.90;;;;;;4954764;28;20089;-71
2022/08/03 06:02:34;;;;;;;17.95;4.53;;;19.50;99.90;;;;;;4954720;28;20058;-73
2022/08/03 06:04:59;;;;;;;12.57;3.87;;;19.50;99.90;;;;;;4938302;29;20098;-73
2022/08/03 06:07:25;;;;;;;20.10;4.73;;;19.60;99.90;;;;;;4954618;29;20508;-72
2022/08/03 06:09:51;;;;;;;17.13;4.13;;;19.60;99.90;;;;;;4954922;28;20067;-72
2022/08/03 06:12:17;;;;;;;13.05;3.70;;;19.70;99.90;;;;;;4953255;29;20475;-74
2022/08/03 06:14:43;;;;;;;21.40;4.23;;;19.80;99.90;;;;;;4954505;29;20047;-72
2022/08/03 06:17:09;;;;;;;14.87;3.73;;;19.90;99.90;;;;;;4953075;29;20475;-73
2022/08/03 06:19:34;;;;;;;15.43;3.63;;;19.90;99.90;;;;;;4954538;29;20079;-73
2022/08/03 06:22:00;;;;;;;22.13;4.50;;;20.00;99.90;;;;;;4937626;29;20062;-72
2022/08/03 06:24:26;;;;;;;15.67;3.47;;;20.10;99.90;;;;;;4953378;29;20094;-73
2022/08/03 06:26:52;;;;;;;11.33;3.33;;;20.10;99.90;;;;;;4954796;28;20039;-73
2022/08/03 06:29:17;;;;;;;16.70;3.70;;;20.20;99.90;;;;;;4953592;29;20468;-72
2022/08/03 06:31:43;;;;;;;16.67;3.73;;;20.30;99.90;;;;;;4953375;29;20081;-84
2022/08/03 06:34:09;;;;;;;14.97;4.13;;;20.30;99.90;;;;;;4953623;29;20094;-72
2022/08/03 06:36:35;;;;;;;20.13;4.60;;;20.40;99.90;;;;;;4953185;29;20131;-73
2022/08/03 06:39:01;;;;;;;13.83;3.50;;;20.50;99.90;;;;;;4954150;29;20054;-72
2022/08/03 06:41:27;;;;;;;17.02;4.00;;;20.50;99.90;;;;;;4954488;28;20103;-72
2022/08/03 06:43:53;;;;;;;15.85;4.25;;;20.60;99.90;;;;;;4953555;29;20099;-71
2022/08/03 06:46:19;;;;;;;14.52;3.75;;;20.70;99.90;;;;;;4953047;29;20055;-70
2022/08/03 06:48:45;;;;;;;19.25;3.75;;;20.70;99.90;;;;;;4952608;29;20047;-82
2022/08/03 06:51:11;;;;;;;15.73;4.47;;;20.70;99.90;;;;;;4953403;28;20055;-74
2022/08/03 06:53:37;;;;;;;15.50;3.70;;;20.60;99.90;;;;;;4956410;29;20374;-73
2022/08/03 06:56:07;;;;;;;21.63;4.40;;;20.60;99.90;;;;;;4940882;29;20436;-72
2022/08/03 06:58:33;;;;;;;20.02;4.53;;;20.60;99.90;;;;;;4956675;29;20287;-73
2022/08/03 07:00:58;;;;;;;18.42;3.88;;;20.60;99.90;;;;;;4957862;29;20190;-72
2022/08/03 07:03:24;;;;;;;19.23;4.27;;;20.70;99.90;;;;;;4956656;29;20043;-72
2022/08/03 07:05:50;;;;;;;18.77;4.33;;;20.80;99.90;;;;;;4956318;29;20046;-72
2022/08/03 07:08:17;;;;;;;24.43;3.63;;;20.90;99.90;;;;;;4940920;29;20062;-71
2022/08/03 07:10:44;;;;;;;18.17;4.05;;;21.00;99.90;;;;;;4956495;29;20051;-71
2022/08/03 07:13:10;;;;;;;14.82;3.25;;;21.00;99.90;;;;;;4957567;29;20051;-73
2022/08/03 07:15:36;;;;;;;15.55;3.60;;;21.20;99.90;;;;;;4940508;29;20507;-72
2022/08/03 07:18:02;;;;;;;12.30;3.23;;;21.20;99.90;;;;;;4956749;29;20039;-71
2022/08/03 07:20:28;;;;;;;20.77;3.00;;;21.20;99.90;;;;;;4957547;28;20058;-72
2022/08/03 07:22:53;;;;;;;16.73;3.27;;;21.20;99.90;;;;;;4957433;28;20043;-71
2022/08/03 07:25:19;;;;;;;16.33;2.93;;;21.20;99.90;;;;;;4956345;29;20051;-74
2022/08/03 07:27:46;;;;;;;21.47;3.50;;;21.20;99.90;;;;;;4940285;29;20059;-73
2022/08/03 07:30:13;;;;;;;19.63;3.67;;;21.30;99.90;;;;;;4957167;28;20047;-72
2022/08/03 07:32:39;;;;;;;14.05;2.70;;;21.30;99.90;;;;;;4940415;29;20055;-72
2022/08/03 07:35:06;;;;;;;13.23;3.42;;;21.50;99.90;;;;;;4957258;28;20047;-74
2022/08/03 07:37:32;;;;;;;20.20;3.00;;;21.60;99.90;;;;;;4940009;29;20117;-73
2022/08/03 07:40:02;;;;;;;19.13;3.30;;;21.60;99.90;;;;;;4956320;29;20047;-72
2022/08/03 07:42:29;;;;;;;17.70;3.45;;;21.70;99.90;;;;;;4956475;29;20507;-72
2022/08/03 07:44:54;;;;;;;;;;;21.70;99.90;;;;;;4956332;29;20122;-72
2022/08/03 07:47:27;;;;;;;21.85;3.60;;;21.80;99.90;;;;;;4955762;29;19930;-71
2022/08/03 07:49:53;;;;;;;18.40;3.13;;;21.80;99.90;;;;;;4955378;29;20500;-71
2022/08/03 07:55:05;;;;;;;22.00;3.28;;;21.90;99.90;;;;;;4956082;29;20432;-71
2022/08/03 07:57:31;;;;;;;20.10;3.20;;;22.10;99.90;;;;;;4939461;29;20447;-72
2022/08/03 07:59:57;;;;;;;14.60;2.77;;;22.20;99.90;;;;;;4955631;29;20043;-71
2022/08/03 08:02:22;;;;;;;17.30;2.83;;;22.20;99.90;;;;;;4940104;29;20911;-73
2022/08/03 08:04:48;;;;;;;19.87;3.10;;;22.30;99.90;;;;;;4923555;29;20237;-72
2022/08/03 08:07:14;;;;;;;24.30;3.20;;;22.30;99.90;;;;;;4955395;29;20138;-71
2022/08/03 08:09:40;;;;;;;19.13;3.40;;;22.40;99.90;;;;;;4956661;29;20047;-71
2022/08/03 08:12:07;;;;;;;17.97;3.53;;;22.40;99.90;;;;;;4956640;28;20051;-72
2022/08/03 08:14:34;;;;;;;19.67;3.40;;;22.60;99.90;;;;;;4956548;28;20051;-72
2022/08/03 08:17:00;;;;;;;19.98;3.85;;;22.60;99.90;;;;;;4955128;29;20057;-73
2022/08/03 08:19:25;;;;;;;24.30;3.85;;;22.70;99.90;;;;;;4956648;29;20066;-71
2022/08/03 08:21:51;;;;;;;19.40;3.67;;;22.80;99.90;;;;;;4939889;29;20472;-71
2022/08/03 08:24:17;;;;;;;18.67;3.40;;;22.80;99.90;;;;;;4939900;29;20070;-71
2022/08/03 08:26:42;;;;;;;27.33;3.80;;;22.90;99.90;;;;;;4955102;29;20055;-71
2022/08/03 08:29:08;;;;;;;15.73;4.03;;;23.10;99.90;;;;;;4956767;29;20229;-72
2022/08/03 08:31:34;;;;;;;19.70;3.27;;;23.00;99.90;;;;;;4955065;29;20073;-72
2022/08/03 08:34:04;;;;;;;16.70;3.10;;;23.10;99.90;;;;;;4956573;29;20114;-71
2022/08/03 08:36:32;;;;;;;20.08;4.10;;;23.10;99.90;;;;;;4954895;29;20046;-72
2022/08/03 08:38:58;;;;;;;20.38;3.00;;;23.20;99.90;;;;;;4956001;29;20081;-72
2022/08/03 08:41:24;;;;;;;18.50;3.20;;;23.40;99.90;;;;;;4954763;29;20503;-72
2022/08/03 08:43:50;;;;;;;14.50;3.03;;;23.50;99.90;;;;;;4956300;29;20055;-72
2022/08/03 08:46:17;;;;;;;18.02;2.95;;;23.50;99.90;;;;;;4956628;28;20118;-73
2022/08/03 08:48:45;;;;;;;21.52;3.05;;;23.60;99.90;;;;;;4956098;28;20492;-72
2022/08/03 08:51:12;;;;;;;26.30;3.15;;;23.70;99.90;;;;;;4956171;28;20098;-71
2022/08/03 08:53:42;;;;;;;18.42;2.63;;;23.80;99.90;;;;;;4955159;28;20065;-73
2022/08/03 08:56:14;;;;;;;15.95;2.70;;;23.90;99.90;;;;;;4955366;29;20058;-77
2022/08/03 08:58:47;;;;;;;20.02;3.03;;;24.00;99.90;;;;;;4955890;29;20058;-73
2022/08/03 09:01:12;;;;;;;18.65;2.53;;;24.10;99.90;;;;;;4955681;28;20058;-72
2022/08/03 09:03:38;;;;;;;22.40;3.10;;;24.10;99.90;;;;;;4955443;29;20039;-73
2022/08/03 09:06:04;;;;;;;21.80;2.42;;;24.30;99.90;;;;;;4954344;29;20051;-74
2022/08/03 09:08:31;;;;;;;18.27;2.77;;;24.20;99.90;;;;;;4955548;29;20047;-73
2022/08/03 09:10:57;;;;;;;19.55;2.65;;;24.30;99.90;;;;;;4955611;29;20386;-75
2022/08/03 09:13:23;;;;;;;21.00;2.50;;;24.40;99.90;;;;;;4957695;29;20133;-70
2022/08/03 09:16:09;;;;;;;18.98;2.90;;;24.50;99.90;;;;;;4957179;28;20126;-72
2022/08/03 09:18:35;;;;;;;;;;;24.50;99.90;;;;;;4958338;28;20111;-73
2022/08/03 09:21:25;;;;;;;17.38;2.30;;;24.60;99.90;;;;;;4961287;29;19923;-74
2022/08/03 09:23:53;;;;;;;29.17;2.90;;;24.60;99.90;;;;;;4960846;29;20146;-72
2022/08/03 09:26:20;;;;;;;26.23;2.83;;;24.60;99.90;;;;;;4960670;29;20047;-72
2022/08/03 09:28:57;;;;;;;21.65;2.78;;;24.70;99.90;;;;;;4962997;29;20273;-74
2022/08/03 09:31:30;;;;;;;;;;;24.80;99.90;;;;;;4965327;28;20064;-73
2022/08/03 09:33:59;;;;;;;21.33;2.78;;;24.90;99.90;;;;;;4963438;29;19926;-73
2022/08/03 09:36:46;;;;;;;19.38;2.45;;;25.00;99.90;;;;;;4961988;28;20350;-74
2022/08/03 09:39:18;;;;;;;;;;;25.10;99.90;;;;;;4962625;28;20043;-73
2022/08/03 09:42:06;;;;;;;18.95;2.53;;;25.20;99.90;;;;;;4961956;29;19922;-73
2022/08/03 09:44:37;;;;;;;19.48;2.55;;;25.20;99.90;;;;;;4960243;28;20062;-74
2022/08/03 09:47:04;;;;;;;13.90;2.80;;;25.20;99.90;;;;;;4959997;28;20123;-75
2022/08/03 09:49:30;;;;;;;13.63;2.50;;;25.30;99.90;;;;;;4958400;28;20039;-73
2022/08/03 09:52:01;;;;;;;14.85;3.03;;;25.30;99.90;;;;;;4919732;29;1116945;-72
2022/08/03 09:54:28;;;;;;;28.17;2.72;;;25.40;99.90;;;;;;4960580;29;20058;-73
2022/08/03 09:56:55;;;;;;;21.92;2.70;;;25.50;99.90;;;;;;4961598;28;20053;-76
2022/08/03 09:59:27;;;;;;;;;;;25.60;99.90;;;;;;4944405;29;20061;-75
2022/08/03 10:01:55;;;;;;;18.80;2.33;;;25.60;99.90;;;;;;4960343;29;19922;-75
2022/08/03 10:04:22;;;;;;;25.45;2.53;;;25.70;99.90;;;;;;4958890;29;20164;-75
2022/08/03 10:07:08;;;;;;;21.85;2.40;;;25.80;99.90;;;;;;4959320;29;20062;-74
2022/08/03 10:09:34;;;;;;;;;;;26.00;99.90;;;;;;4960716;29;20385;-77
2022/08/03 10:12:11;;;;;;;22.27;2.58;;;26.00;99.90;;;;;;4959931;29;19922;-74
2022/08/03 10:14:39;;;;;;;19.13;2.45;;;26.10;99.90;;;;;;4957911;29;20062;-75
2022/08/03 10:17:05;;;;;;;22.83;2.65;;;26.10;99.90;;;;;;4941287;29;20137;-74
2022/08/03 10:19:31;;;;;;;15.95;2.10;;;26.20;99.90;;;;;;4958704;29;20079;-74
2022/08/03 10:22:06;;;;;;;18.65;2.25;;;26.30;99.90;;;;;;4957164;29;20047;-72
2022/08/03 10:24:35;;;;;;;16.98;2.30;;;26.30;99.90;;;;;;4940779;29;20051;-74
2022/08/03 10:27:06;;;;;;;17.02;2.50;;;26.30;99.90;;;;;;4956147;28;20043;-75
2022/08/03 10:29:46;;;;;;;12.32;1.73;;;26.40;99.90;;;;;;4958194;29;20047;-74
2022/08/03 10:32:27;;;;;;;21.27;2.70;;;26.50;99.90;;;;;;4959809;28;20051;-73
2022/08/03 10:35:03;;;;;;;19.17;2.40;;;26.50;99.90;;;;;;4960735;29;20083;-76
2022/08/03 10:37:31;;;;;;;16.52;1.95;;;26.50;99.90;;;;;;4960897;29;20039;-74
2022/08/03 10:40:04;;;;;;;15.90;2.20;;;26.70;99.90;;;;;;4962596;29;20061;-74
2022/08/03 10:42:30;;;;;;;18.63;2.47;;;26.70;99.90;;;;;;4961092;28;20102;-73
2022/08/03 10:45:11;;;;;;;24.30;2.58;;;26.80;99.90;;;;;;4960873;29;20089;-74
2022/08/03 10:47:39;;;;;;;22.67;2.83;;;27.00;99.90;;;;;;4960821;29;20133;-73
2022/08/03 10:50:06;;;;;;;20.67;2.15;;;26.90;99.90;;;;;;4958939;29;20424;-75
2022/08/03 10:52:31;;;;;;;16.95;1.92;;;27.00;99.90;;;;;;4956984;29;20062;-74
2022/08/03 10:57:52;;;;;;;20.33;2.13;;;27.10;99.90;;;;;;4956434;29;20051;-74
2022/08/03 11:00:20;;;;;;;18.33;1.80;;;27.20;99.90;;;;;;4940000;29;20186;-73
2022/08/03 11:03:07;;;;;;;15.90;1.88;;;27.40;99.90;;;;;;4955194;28;20087;-77
2022/08/03 11:05:40;;;;;;;18.00;2.33;;;27.40;99.90;;;;;;4955845;29;20051;-74
2022/08/03 11:08:24;;;;;;;14.52;2.63;;;27.50;99.90;;;;;;4957830;29;20504;-75
2022/08/03 11:10:58;;;;;;;17.23;1.98;;;27.50;99.90;;;;;;4944177;29;20051;-74
2022/08/03 11:13:27;;;;;;;20.52;1.75;;;27.70;99.90;;;;;;4961386;29;20153;-75
2022/08/03 11:15:55;;;;;;;15.65;2.05;;;27.70;99.90;;;;;;4960721;29;20062;-74
2022/08/03 11:18:22;;;;;;;19.40;2.15;;;27.90;99.90;;;;;;4929409;29;20055;-75
2022/08/03 11:20:56;;;;;;;22.80;2.50;;;27.90;99.90;;;;;;4962463;28;20051;-76
2022/08/03 11:23:41;;;;;;;25.58;2.40;;;28.00;99.90;;;;;;4962416;29;20054;-74
2022/08/03 11:26:17;;;;;;;20.63;2.10;;;28.10;99.90;;;;;;4961921;29;20090;-75
2022/08/03 11:28:45;;;;;;;22.15;2.85;;;28.10;99.90;;;;;;4961177;29;20432;-77
2022/08/03 11:31:23;;;;;;;23.30;2.35;;;28.10;99.90;;;;;;4957452;29;20047;-75
2022/08/03 11:34:08;;;;;;;25.85;2.90;;;28.20;99.90;;;;;;4955326;29;20052;-73
2022/08/03 11:37:11;;;;;;;23.85;2.42;;;28.30;98.90;;;;;;4955403;28;20443;-74
2022/08/03 11:39:45;;;;;;;25.65;2.67;;;28.30;98.20;;;;;;4956594;28;20043;-72
2022/08/03 11:42:23;;;;;;;23.58;2.22;;;28.40;98.40;;;;;;4957970;29;20103;-73
2022/08/03 11:44:54;;;;;;;21.80;2.08;;;28.40;97.30;;;;;;4940715;29;20494;-73
2022/08/03 11:47:21;;;;;;;16.52;1.88;;;28.40;98.40;;;;;;4957999;29;20101;-78
2022/08/03 11:49:47;;;;;;;23.52;2.33;;;28.40;98.60;;;;;;4941196;29;20043;-73
2022/08/03 11:52:15;;;;;;;23.98;2.17;;;28.40;98.10;;;;;;4939624;29;20070;-72
2022/08/03 11:54:42;;;;;;;21.67;2.30;;;28.50;97.20;;;;;;4956177;29;20550;-74
2022/08/03 11:57:08;;;;;;;19.42;2.08;;;28.50;97.30;;;;;;4956011;29;20043;-72
2022/08/03 11:59:36;;;;;;;18.10;2.08;;;28.50;97.50;;;;;;4940549;29;20043;-73
2022/08/03 12:02:06;;;;;;;17.15;2.38;;;28.50;97.30;;;;;;4956020;29;20051;-74
2022/08/03 12:04:50;;;;;;;29.10;2.85;;;28.60;96.50;;;;;;4940140;29;20054;-74
2022/08/03 12:07:16;;;;;;;17.45;2.60;;;28.60;97.10;;;;;;4957157;29;20051;-74
2022/08/03 12:09:43;;;;;;;25.10;2.20;;;28.70;96.90;;;;;;4955769;29;20113;-72
2022/08/03 12:12:09;;;;;;;19.83;2.10;;;28.90;95.70;;;;;;4955820;29;20443;-71
2022/08/03 12:14:35;;;;;;;21.88;2.42;;;29.00;96.30;;;;;;4955671;29;20051;-73
2022/08/03 12:17:00;;;;;;;21.40;2.85;;;29.00;94.40;;;;;;4939666;29;20496;-74
2022/08/03 12:19:26;;;;;;;22.13;2.65;;;29.00;95.00;;;;;;4955598;29;20047;-73
2022/08/03 12:21:52;;;;;;;22.40;2.20;;;29.00;94.60;;;;;;4955750;29;20488;-72
2022/08/03 12:24:18;;;;;;;24.05;2.40;;;29.10;94.80;;;;;;4923847;29;20049;-75
2022/08/03 12:26:49;;;;;;;21.63;2.08;;;29.10;95.30;;;;;;4923766;29;20063;-72
2022/08/03 12:29:19;;;;;;;20.90;2.28;;;29.20;93.20;;;;;;4955788;29;20082;-73
2022/08/03 12:31:45;;;;;;;22.88;2.10;;;29.20;93.50;;;;;;4955757;29;20043;-73
2022/08/03 12:34:11;;;;;;;23.67;2.25;;;29.30;94.10;;;;;;4956497;28;20506;-73
2022/08/03 12:36:37;;;;;;;23.77;2.00;;;29.40;93.40;;;;;;4955209;29;20098;-75
2022/08/03 12:39:08;;;;;;;20.38;1.77;;;29.40;92.60;;;;;;4939749;29;20051;-72
2022/08/03 12:41:35;;;;;;;15.32;2.67;;;29.50;93.30;;;;;;4955372;29;20066;-73
2022/08/03 12:44:05;;;;;;;17.73;2.40;;;29.60;93.00;;;;;;4955966;29;20047;-73
2022/08/03 12:46:37;;;;;;;18.35;2.00;;;29.70;93.20;;;;;;4956282;29;20050;-72
2022/08/03 12:49:06;;;;;;;18.15;1.80;;;29.70;92.80;;;;;;4954961;28;20055;-74
2022/08/03 12:51:56;;;;;;;16.67;2.35;;;29.70;93.20;;;;;;4956020;29;20058;-72
2022/08/03 12:54:30;;;;;;;18.73;2.55;;;29.70;93.70;;;;;;4954833;29;20058;-73
2022/08/03 12:57:07;;;;;;;18.63;2.15;;;29.60;94.10;;;;;;4956819;29;20051;-76
2022/08/03 12:59:41;;;;;;;16.88;2.47;;;29.60;94.40;;;;;;4939927;29;20411;-75